createdAt,value
2019-01-05T00:00:05.217Z,2.90
2019-01-05T00:01:04.682Z,2.90
2019-01-05T00:02:04.753Z,2.90
2019-01-05T00:03:07.402Z,2.90
2019-01-05T00:04:05.330Z,2.90
2019-01-05T00:05:05.488Z,2.90
2019-01-05T00:06:08.069Z,2.90
2019-01-05T00:07:05.084Z,2.90
2019-01-05T00:08:12.751Z,2.90
2019-01-05T00:09:08.352Z,2.90
2019-01-05T00:10:05.278Z,2.90
2019-01-05T00:11:07.957Z,2.90
2019-01-05T00:12:07.631Z,2.90
2019-01-05T00:13:08.306Z,2.90
2019-01-05T00:14:05.272Z,2.90
2019-01-05T00:15:05.300Z,2.90
2019-01-05T00:16:08.119Z,2.90
2019-01-05T00:17:05.183Z,2.90
2019-01-05T00:18:05.216Z,3.00
2019-01-05T00:19:07.834Z,2.90
2019-01-05T00:20:09.864Z,2.90
2019-01-05T00:21:07.361Z,2.90
2019-01-05T00:22:07.794Z,3.00
2019-01-05T00:23:04.768Z,3.00
2019-01-05T00:24:07.330Z,3.00
2019-01-05T00:25:05.246Z,2.90
2019-01-05T00:26:05.346Z,3.00
2019-01-05T00:27:08.087Z,3.00
2019-01-05T00:28:07.580Z,3.00
2019-01-05T00:29:08.061Z,3.00
2019-01-05T00:30:07.615Z,3.00
2019-01-05T00:31:08.337Z,3.00
2019-01-05T00:32:05.366Z,3.00
2019-01-05T00:33:08.036Z,3.00
2019-01-05T00:34:04.917Z,3.00
2019-01-05T00:35:07.480Z,3.00
2019-01-05T00:36:05.390Z,3.00
2019-01-05T00:37:10.514Z,3.00
2019-01-05T00:38:08.009Z,3.00
2019-01-05T00:39:10.077Z,3.00
2019-01-05T00:40:07.547Z,3.00
2019-01-05T00:41:05.414Z,3.10
2019-01-05T00:42:13.007Z,3.10
2019-01-05T00:43:07.387Z,3.10
2019-01-05T00:44:10.478Z,3.10
2019-01-05T00:45:07.967Z,3.10
2019-01-05T00:46:04.887Z,3.10
2019-01-05T00:47:04.941Z,3.10
2019-01-05T00:48:07.595Z,3.10
2019-01-05T00:49:08.215Z,3.10
2019-01-05T00:50:05.150Z,3.10
2019-01-05T00:51:05.611Z,3.10
2019-01-05T00:52:09.777Z,3.10
2019-01-05T00:53:04.700Z,3.10
2019-01-05T00:54:04.745Z,3.10
2019-01-05T00:55:04.864Z,3.10
2019-01-05T00:56:04.965Z,3.20
2019-01-05T00:57:05.012Z,3.10
2019-01-05T00:58:05.225Z,3.20
2019-01-05T00:59:05.268Z,3.10
2019-01-05T01:00:05.474Z,3.20
2019-01-05T01:01:05.719Z,3.20
2019-01-05T01:02:04.843Z,3.10
2019-01-05T01:03:04.879Z,3.10
2019-01-05T01:04:04.944Z,3.20
2019-01-05T01:05:07.993Z,3.20
2019-01-05T01:06:04.907Z,3.20
2019-01-05T01:07:12.652Z,3.20
2019-01-05T01:08:05.591Z,3.20
2019-01-05T01:09:08.207Z,3.20
2019-01-05T01:10:05.101Z,3.20
2019-01-05T01:11:05.254Z,3.20
2019-01-05T01:12:05.300Z,3.20
2019-01-05T01:13:05.444Z,3.20
2019-01-05T01:14:08.235Z,3.20
2019-01-05T01:15:07.685Z,3.30
2019-01-05T01:16:05.735Z,3.20
2019-01-05T01:17:04.924Z,3.20
2019-01-05T01:18:05.082Z,3.20
2019-01-05T01:19:07.698Z,3.30
2019-01-05T01:20:05.643Z,3.30
2019-01-05T01:21:07.279Z,3.30
2019-01-05T01:22:07.733Z,3.30
2019-01-05T01:23:04.762Z,3.30
2019-01-05T01:24:05.038Z,3.30
2019-01-05T01:25:05.114Z,3.30
2019-01-05T01:26:05.213Z,3.30
2019-01-05T01:27:07.974Z,3.30
2019-01-05T01:28:07.517Z,3.30
2019-01-05T01:29:05.430Z,3.30
2019-01-05T01:30:05.034Z,3.30
2019-01-05T01:31:05.163Z,3.40
2019-01-05T01:32:07.778Z,3.40
2019-01-05T01:33:04.865Z,3.40
2019-01-05T01:34:07.516Z,3.30
2019-01-05T01:35:05.462Z,3.40
2019-01-05T01:36:05.669Z,3.40
2019-01-05T01:37:07.316Z,3.30
2019-01-05T01:38:05.231Z,3.40
2019-01-05T01:39:07.847Z,3.40
2019-01-05T01:40:04.714Z,3.40
2019-01-05T01:41:07.287Z,3.40
2019-01-05T01:42:05.221Z,3.40
2019-01-05T01:43:07.817Z,3.40
2019-01-05T01:44:04.824Z,3.40
2019-01-05T01:45:07.426Z,3.40
2019-01-05T01:46:05.373Z,3.40
2019-01-05T01:47:07.950Z,3.40
2019-01-05T01:48:04.846Z,3.40
2019-01-05T01:49:07.438Z,3.40
2019-01-05T01:50:05.433Z,3.40
2019-01-05T01:51:05.621Z,3.50
2019-01-05T01:52:07.262Z,3.40
2019-01-05T01:53:05.244Z,3.40
2019-01-05T01:54:07.874Z,3.40
2019-01-05T01:55:04.773Z,3.40
2019-01-05T01:56:04.965Z,3.50
2019-01-05T01:57:07.676Z,3.40
2019-01-05T01:58:05.655Z,3.40
2019-01-05T01:59:04.731Z,3.50
2019-01-05T02:00:04.756Z,3.50
2019-01-05T02:01:09.934Z,3.40
2019-01-05T02:02:10.090Z,3.40
2019-01-05T02:03:05.926Z,3.40
2019-01-05T02:04:05.337Z,3.50
2019-01-05T02:05:05.520Z,3.50
2019-01-05T02:06:11.003Z,3.40
2019-01-05T02:07:05.054Z,3.40
2019-01-05T02:08:07.722Z,3.40
2019-01-05T02:09:04.739Z,3.40
2019-01-05T02:10:07.409Z,3.50
2019-01-05T02:11:08.027Z,3.50
2019-01-05T02:12:07.591Z,3.40
2019-01-05T02:13:08.099Z,3.50
2019-01-05T02:14:05.151Z,3.40
2019-01-05T02:15:07.946Z,3.50
2019-01-05T02:16:07.448Z,3.40
2019-01-05T02:17:07.952Z,3.40
2019-01-05T02:18:05.059Z,3.40
2019-01-05T02:19:05.264Z,3.40
2019-01-05T02:20:05.347Z,3.40
2019-01-05T02:21:07.994Z,3.40
2019-01-05T02:22:07.499Z,3.50
2019-01-05T02:23:05.462Z,3.40
2019-01-05T02:24:05.561Z,3.50
2019-01-05T02:25:05.665Z,3.50
2019-01-05T02:26:04.677Z,3.50
2019-01-05T02:27:04.737Z,3.50
2019-01-05T02:28:07.321Z,3.50
2019-01-05T02:29:05.245Z,3.50
2019-01-05T02:30:08.144Z,3.40
2019-01-05T02:31:07.749Z,3.50
2019-01-05T02:32:10.795Z,3.50
2019-01-05T02:33:04.736Z,3.50
2019-01-05T02:34:04.849Z,3.50
2019-01-05T02:35:05.044Z,3.40
2019-01-05T02:36:05.075Z,3.50
2019-01-05T02:37:05.216Z,3.40
2019-01-05T02:38:05.267Z,3.50
2019-01-05T02:39:07.859Z,3.50
2019-01-05T02:40:07.414Z,3.50
2019-01-05T02:41:07.958Z,3.50
2019-01-05T02:42:04.986Z,3.50
2019-01-05T02:43:05.106Z,3.50
2019-01-05T02:44:07.763Z,3.50
2019-01-05T02:45:07.309Z,3.50
2019-01-05T02:46:05.264Z,3.50
2019-01-05T02:47:10.426Z,3.50
2019-01-05T02:48:05.447Z,3.50
2019-01-05T02:49:05.693Z,3.50
2019-01-05T02:50:07.625Z,3.50
2019-01-05T02:51:05.768Z,3.50
2019-01-05T02:52:05.000Z,3.50
2019-01-05T02:53:05.185Z,3.50
2019-01-05T02:54:05.295Z,3.50
2019-01-05T02:55:08.046Z,3.50
2019-01-05T02:56:07.516Z,3.50
2019-01-05T02:57:08.124Z,3.60
2019-01-05T02:58:05.178Z,3.60
2019-01-05T02:59:07.845Z,3.60
2019-01-05T03:00:04.773Z,3.50
2019-01-05T03:01:07.357Z,3.60
2019-01-05T03:02:05.284Z,3.60
2019-01-05T03:03:05.411Z,3.60
2019-01-05T03:04:08.137Z,3.50
2019-01-05T03:05:05.191Z,3.60
2019-01-05T03:06:05.265Z,3.60
2019-01-05T03:07:05.372Z,3.60
2019-01-05T03:08:07.941Z,3.60
2019-01-05T03:09:07.359Z,3.60
2019-01-05T03:10:05.542Z,3.50
2019-01-05T03:11:05.625Z,3.60
2019-01-05T03:12:07.545Z,3.60
2019-01-05T03:13:05.562Z,3.50
2019-01-05T03:14:05.815Z,3.60
2019-01-05T03:15:04.938Z,3.50
2019-01-05T03:16:05.163Z,3.60
2019-01-05T03:17:07.826Z,3.60
2019-01-05T03:18:04.767Z,3.60
2019-01-05T03:19:04.818Z,3.50
2019-01-05T03:20:04.899Z,3.50
2019-01-05T03:21:04.955Z,3.60
2019-01-05T03:22:07.533Z,3.60
2019-01-05T03:23:05.545Z,3.50
2019-01-05T03:24:05.690Z,3.60
2019-01-05T03:25:04.770Z,3.60
2019-01-05T03:26:05.020Z,3.60
2019-01-05T03:27:05.077Z,3.60
2019-01-05T03:28:07.736Z,3.60
2019-01-05T03:29:04.709Z,3.50
2019-01-05T03:30:05.307Z,3.50
2019-01-05T03:31:05.376Z,3.60
2019-01-05T03:32:08.041Z,3.60
2019-01-05T03:33:05.026Z,3.60
2019-01-05T03:34:05.060Z,3.50
2019-01-05T03:35:10.242Z,3.60
2019-01-05T03:36:05.219Z,3.50
2019-01-05T03:37:05.503Z,3.60
2019-01-05T03:38:08.293Z,3.50
2019-01-05T03:39:07.787Z,3.60
2019-01-05T03:40:07.310Z,3.50
2019-01-05T03:41:05.297Z,3.50
2019-01-05T03:42:05.305Z,3.60
2019-01-05T03:43:08.054Z,3.60
2019-01-05T03:44:05.257Z,3.50
2019-01-05T03:45:05.523Z,3.50
2019-01-05T03:46:13.346Z,3.60
2019-01-05T03:47:05.285Z,3.50
2019-01-05T03:48:07.882Z,3.60
2019-01-05T03:49:07.344Z,3.60
2019-01-05T03:50:05.416Z,3.60
2019-01-05T03:51:05.779Z,3.60
2019-01-05T03:52:05.002Z,3.60
2019-01-05T03:53:07.668Z,3.60
2019-01-05T03:54:05.722Z,3.60
2019-01-05T03:55:04.899Z,3.60
2019-01-05T03:56:10.379Z,3.60
2019-01-05T03:57:07.887Z,3.60
2019-01-05T03:58:04.963Z,3.60
2019-01-05T03:59:05.140Z,3.60
2019-01-05T04:00:05.188Z,3.60
2019-01-05T04:01:05.300Z,3.60
2019-01-05T04:02:07.883Z,3.60
2019-01-05T04:03:04.927Z,3.60
2019-01-05T04:04:07.671Z,3.60
2019-01-05T04:05:05.718Z,3.60
2019-01-05T04:06:04.743Z,3.60
2019-01-05T04:07:04.930Z,3.60
2019-01-05T04:08:07.480Z,3.60
2019-01-05T04:09:07.912Z,3.60
2019-01-05T04:10:04.802Z,3.60
2019-01-05T04:11:07.355Z,3.60
2019-01-05T04:12:05.440Z,3.70
2019-01-05T04:13:05.517Z,3.60
2019-01-05T04:14:08.142Z,3.60
2019-01-05T04:15:05.323Z,3.60
2019-01-05T04:16:07.955Z,3.70
2019-01-05T04:17:05.040Z,3.60
2019-01-05T04:18:05.082Z,3.70
2019-01-05T04:19:05.164Z,3.60
2019-01-05T04:20:07.797Z,3.60
2019-01-05T04:21:04.795Z,3.70
2019-01-05T04:22:12.545Z,3.60
2019-01-05T04:23:05.579Z,3.60
2019-01-05T04:24:05.631Z,3.70
2019-01-05T04:25:07.382Z,3.70
2019-01-05T04:26:05.436Z,3.70
2019-01-05T04:27:10.572Z,3.70
2019-01-05T04:28:05.530Z,3.70
2019-01-05T04:29:08.169Z,3.70
2019-01-05T04:30:07.652Z,3.60
2019-01-05T04:31:04.692Z,3.60
2019-01-05T04:32:07.349Z,3.70
2019-01-05T04:33:05.197Z,3.70
2019-01-05T04:34:05.238Z,3.70
2019-01-05T04:35:07.859Z,3.70
2019-01-05T04:36:05.002Z,3.60
2019-01-05T04:37:07.575Z,3.70
2019-01-05T04:38:05.512Z,3.60
2019-01-05T04:39:05.716Z,3.70
2019-01-05T04:40:07.543Z,3.70
2019-01-05T04:41:08.053Z,3.70
2019-01-05T04:42:04.970Z,3.70
2019-01-05T04:43:07.590Z,3.70
2019-01-05T04:44:05.641Z,3.70
2019-01-05T04:45:07.203Z,3.60
2019-01-05T04:46:05.226Z,3.70
2019-01-05T04:47:05.305Z,3.60
2019-01-05T04:48:05.440Z,3.60
2019-01-05T04:49:05.573Z,3.60
2019-01-05T04:50:08.161Z,3.60
2019-01-05T04:51:07.741Z,3.60
2019-01-05T04:52:04.689Z,3.60
2019-01-05T04:53:07.254Z,3.60
2019-01-05T04:54:07.713Z,3.60
2019-01-05T04:55:08.238Z,3.60
2019-01-05T04:56:05.342Z,3.60
2019-01-05T04:57:05.348Z,3.60
2019-01-05T04:58:05.510Z,3.60
2019-01-05T04:59:10.789Z,3.60
2019-01-05T05:00:04.859Z,3.60
2019-01-05T05:01:04.951Z,3.60
2019-01-05T05:02:08.002Z,3.60
2019-01-05T05:03:05.106Z,3.60
2019-01-05T05:04:05.442Z,3.60
2019-01-05T05:05:05.521Z,3.60
2019-01-05T05:06:05.619Z,3.60
2019-01-05T05:07:07.321Z,3.60
2019-01-05T05:08:05.355Z,3.60
2019-01-05T05:09:07.923Z,3.60
2019-01-05T05:10:04.998Z,3.60
2019-01-05T05:11:05.105Z,3.60
2019-01-05T05:12:05.195Z,3.60
2019-01-05T05:13:05.282Z,3.60
2019-01-05T05:14:05.427Z,3.60
2019-01-05T05:15:05.700Z,3.60
2019-01-05T05:16:07.486Z,3.60
2019-01-05T05:17:08.166Z,3.60
2019-01-05T05:18:05.123Z,3.50
2019-01-05T05:19:07.686Z,3.50
2019-01-05T05:20:05.640Z,3.50
2019-01-05T05:21:04.816Z,3.60
2019-01-05T05:22:07.432Z,3.60
2019-01-05T05:23:05.381Z,3.60
2019-01-05T05:24:05.546Z,3.50
2019-01-05T05:25:07.762Z,3.60
2019-01-05T05:26:04.864Z,3.60
2019-01-05T05:27:05.045Z,3.60
2019-01-05T05:28:05.175Z,3.60
2019-01-05T05:29:05.427Z,3.60
2019-01-05T05:30:08.137Z,3.60
2019-01-05T05:31:05.140Z,3.60
2019-01-05T05:32:07.684Z,3.60
2019-01-05T05:33:05.684Z,3.60
2019-01-05T05:34:04.790Z,3.60
2019-01-05T05:35:07.457Z,3.60
2019-01-05T05:36:05.425Z,3.50
2019-01-05T05:37:05.643Z,3.60
2019-01-05T05:38:04.885Z,3.60
2019-01-05T05:39:05.074Z,3.60
2019-01-05T05:40:05.248Z,3.60
2019-01-05T05:41:07.976Z,3.50
2019-01-05T05:42:05.059Z,3.50
2019-01-05T05:43:05.312Z,3.50
2019-01-05T05:44:05.405Z,3.50
2019-01-05T05:45:08.095Z,3.50
2019-01-05T05:46:07.617Z,3.50
2019-01-05T05:47:10.698Z,3.50
2019-01-05T05:48:07.226Z,3.50
2019-01-05T05:49:05.106Z,3.50
2019-01-05T05:50:07.644Z,3.60
2019-01-05T05:51:10.669Z,3.50
2019-01-05T05:52:13.862Z,3.50
2019-01-05T05:53:07.553Z,3.50
2019-01-05T05:54:05.634Z,3.50
2019-01-05T05:55:04.796Z,3.50
2019-01-05T05:56:05.077Z,3.50
2019-01-05T05:57:07.803Z,3.50
2019-01-05T05:58:07.291Z,3.50
2019-01-05T05:59:07.866Z,3.50
2019-01-05T06:00:04.768Z,3.50
2019-01-05T06:01:04.872Z,3.50
2019-01-05T06:02:07.474Z,3.50
2019-01-05T06:03:05.413Z,3.50
2019-01-05T06:04:05.472Z,3.50
2019-01-05T06:05:05.606Z,3.50
2019-01-05T06:06:07.239Z,3.50
2019-01-05T06:07:05.148Z,3.50
2019-01-05T06:08:07.883Z,3.50
2019-01-05T06:09:09.960Z,3.50
2019-01-05T06:10:04.988Z,3.50
2019-01-05T06:11:05.145Z,3.50
2019-01-05T06:12:05.243Z,3.50
2019-01-05T06:13:05.259Z,3.50
2019-01-05T06:14:05.225Z,3.50
2019-01-05T06:15:05.274Z,3.50
2019-01-05T06:16:07.815Z,3.50
2019-01-05T06:17:05.400Z,3.50
2019-01-05T06:18:08.205Z,3.50
2019-01-05T06:19:05.219Z,3.50
2019-01-05T06:20:05.310Z,3.50
2019-01-05T06:21:07.900Z,3.50
2019-01-05T06:22:04.792Z,3.50
2019-01-05T06:23:04.955Z,3.50
2019-01-05T06:24:05.129Z,3.50
2019-01-05T06:25:05.146Z,3.50
2019-01-05T06:26:07.763Z,3.50
2019-01-05T06:27:05.682Z,3.50
2019-01-05T06:28:04.768Z,3.50
2019-01-05T06:29:07.460Z,3.50
2019-01-05T06:30:08.115Z,3.50
2019-01-05T06:31:05.240Z,3.50
2019-01-05T06:32:07.941Z,3.50
2019-01-05T06:33:04.847Z,3.50
2019-01-05T06:34:04.844Z,3.50
2019-01-05T06:35:04.947Z,3.60
2019-01-05T06:36:07.674Z,3.60
2019-01-05T06:37:07.384Z,3.50
2019-01-05T06:38:05.364Z,3.50
2019-01-05T06:39:05.484Z,3.60
2019-01-05T06:40:05.549Z,3.60
2019-01-05T06:41:05.591Z,3.60
2019-01-05T06:42:05.167Z,3.60
2019-01-05T06:43:05.333Z,3.60
2019-01-05T06:44:05.622Z,3.60
2019-01-05T06:45:04.794Z,3.60
2019-01-05T06:46:04.921Z,3.60
2019-01-05T06:47:04.958Z,3.60
2019-01-05T06:48:05.162Z,3.60
2019-01-05T06:49:05.297Z,3.60
2019-01-05T06:50:04.760Z,3.60
2019-01-05T06:51:04.980Z,3.60
2019-01-05T06:52:07.559Z,3.60
2019-01-05T06:53:05.625Z,3.60
2019-01-05T06:54:04.689Z,3.60
2019-01-05T06:55:07.314Z,3.60
2019-01-05T06:56:05.255Z,3.60
2019-01-05T06:57:05.456Z,3.60
2019-01-05T06:58:05.575Z,3.60
2019-01-05T06:59:05.651Z,3.60
2019-01-05T07:00:04.774Z,3.70
2019-01-05T07:01:07.472Z,3.70
2019-01-05T07:02:05.334Z,3.70
2019-01-05T07:03:05.487Z,3.70
2019-01-05T07:04:05.583Z,3.70
2019-01-05T07:05:05.693Z,3.70
2019-01-05T07:06:09.853Z,3.70
2019-01-05T07:07:04.925Z,3.70
2019-01-05T07:08:05.076Z,3.70
2019-01-05T07:09:12.763Z,3.70
2019-01-05T07:10:07.199Z,3.70
2019-01-05T07:11:07.720Z,3.70
2019-01-05T07:12:04.760Z,3.70
2019-01-05T07:13:07.826Z,3.70
2019-01-05T07:14:04.972Z,3.70
2019-01-05T07:15:05.106Z,3.70
2019-01-05T07:16:07.909Z,3.80
2019-01-05T07:17:07.457Z,3.80
2019-01-05T07:18:05.381Z,3.70
2019-01-05T07:19:08.044Z,3.70
2019-01-05T07:20:05.131Z,3.80
2019-01-05T07:21:05.632Z,3.80
2019-01-05T07:22:04.851Z,3.80
2019-01-05T07:23:05.097Z,3.80
2019-01-05T07:24:05.189Z,3.80
2019-01-05T07:25:07.943Z,3.80
2019-01-05T07:26:05.024Z,3.80
2019-01-05T07:27:10.187Z,3.80
2019-01-05T07:28:07.735Z,3.90
2019-01-05T07:29:05.608Z,3.90
2019-01-05T07:30:05.363Z,3.90
2019-01-05T07:31:08.006Z,3.90
2019-01-05T07:32:12.650Z,3.90
2019-01-05T07:33:05.599Z,3.80
2019-01-05T07:34:05.699Z,3.90
2019-01-05T07:35:04.773Z,3.90
2019-01-05T07:36:04.806Z,3.90
2019-01-05T07:37:05.065Z,3.90
2019-01-05T07:38:05.190Z,3.90
2019-01-05T07:39:07.939Z,3.90
2019-01-05T07:40:04.989Z,4.00
2019-01-05T07:41:05.167Z,3.90
2019-01-05T07:42:07.836Z,4.00
2019-01-05T07:43:04.770Z,4.00
2019-01-05T07:44:04.803Z,4.00
2019-01-05T07:45:04.822Z,4.00
2019-01-05T07:46:04.858Z,4.00
2019-01-05T07:47:07.449Z,4.00
2019-01-05T07:48:05.562Z,4.00
2019-01-05T07:49:07.241Z,4.00
2019-01-05T07:50:07.850Z,4.00
2019-01-05T07:51:04.818Z,4.00
2019-01-05T07:52:04.952Z,4.00
2019-01-05T07:53:05.072Z,4.10
2019-01-05T07:54:05.129Z,4.00
2019-01-05T07:55:05.363Z,4.00
2019-01-05T07:56:08.000Z,4.10
2019-01-05T07:57:04.923Z,4.10
2019-01-05T07:58:07.634Z,4.10
2019-01-05T07:59:05.715Z,4.10
2019-01-05T08:00:04.811Z,4.10
2019-01-05T08:01:07.497Z,4.10
2019-01-05T08:02:08.017Z,4.10
2019-01-05T08:03:04.920Z,4.10
2019-01-05T08:04:05.139Z,4.10
2019-01-05T08:05:05.243Z,4.10
2019-01-05T08:06:05.340Z,4.10
2019-01-05T08:07:07.981Z,4.10
2019-01-05T08:08:07.436Z,4.20
2019-01-05T08:09:05.328Z,4.20
2019-01-05T08:10:07.938Z,4.20
2019-01-05T08:11:07.463Z,4.20
2019-01-05T08:12:07.995Z,4.20
2019-01-05T08:13:05.026Z,4.20
2019-01-05T08:14:07.721Z,4.20
2019-01-05T08:15:07.257Z,4.20
2019-01-05T08:16:05.348Z,4.20
2019-01-05T08:17:05.627Z,4.20
2019-01-05T08:18:04.842Z,4.20
2019-01-05T08:19:05.178Z,4.20
2019-01-05T08:20:05.286Z,4.20
2019-01-05T08:21:08.016Z,4.30
2019-01-05T08:22:07.504Z,4.30
2019-01-05T08:23:05.444Z,4.30
2019-01-05T08:24:05.613Z,4.30
2019-01-05T08:25:07.201Z,4.30
2019-01-05T08:26:07.731Z,4.30
2019-01-05T08:27:04.807Z,4.30
2019-01-05T08:28:05.095Z,4.30
2019-01-05T08:29:05.311Z,4.30
2019-01-05T08:30:04.863Z,4.30
2019-01-05T08:31:07.485Z,4.30
2019-01-05T08:32:05.523Z,4.30
2019-01-05T08:33:05.654Z,4.40
2019-01-05T08:34:07.267Z,4.40
2019-01-05T08:35:05.158Z,4.40
2019-01-05T08:36:05.275Z,4.40
2019-01-05T08:37:05.429Z,4.40
2019-01-05T08:38:05.535Z,4.40
2019-01-05T08:39:05.588Z,4.40
2019-01-05T08:40:07.255Z,4.40
2019-01-05T08:41:07.686Z,4.40
2019-01-05T08:42:13.412Z,4.40
2019-01-05T08:43:10.503Z,4.40
2019-01-05T08:44:05.528Z,4.40
2019-01-05T08:45:08.090Z,4.40
2019-01-05T08:46:07.584Z,4.40
2019-01-05T08:47:08.206Z,4.40
2019-01-05T08:48:07.921Z,4.50
2019-01-05T08:49:10.000Z,4.50
2019-01-05T08:50:07.417Z,4.50
2019-01-05T08:51:05.456Z,4.40
2019-01-05T08:52:08.100Z,4.50
2019-01-05T08:53:05.019Z,4.50
2019-01-05T08:54:07.704Z,4.50
2019-01-05T08:55:04.721Z,4.50
2019-01-05T08:56:04.891Z,4.50
2019-01-05T08:57:05.029Z,4.60
2019-01-05T08:58:05.047Z,4.60
2019-01-05T08:59:07.570Z,4.60
2019-01-05T09:00:05.623Z,4.60
2019-01-05T09:01:04.884Z,4.60
2019-01-05T09:02:04.932Z,4.60
2019-01-05T09:03:05.020Z,4.60
2019-01-05T09:04:05.047Z,4.60
2019-01-05T09:05:07.789Z,4.60
2019-01-05T09:06:04.752Z,4.60
2019-01-05T09:07:04.794Z,4.70
2019-01-05T09:08:04.888Z,4.70
2019-01-05T09:09:05.521Z,4.70
2019-01-05T09:10:05.038Z,4.70
2019-01-05T09:11:05.158Z,4.70
2019-01-05T09:12:07.795Z,4.70
2019-01-05T09:13:07.319Z,4.70
2019-01-05T09:14:05.222Z,4.70
2019-01-05T09:15:05.417Z,4.80
2019-01-05T09:16:10.558Z,4.70
2019-01-05T09:17:08.148Z,4.80
2019-01-05T09:18:10.216Z,4.80
2019-01-05T09:19:05.170Z,4.80
2019-01-05T09:20:07.811Z,4.80
2019-01-05T09:21:04.774Z,4.80
2019-01-05T09:22:04.982Z,4.80
2019-01-05T09:23:07.323Z,4.90
2019-01-05T09:24:05.341Z,4.80
2019-01-05T09:25:05.387Z,4.90
2019-01-05T09:26:05.549Z,4.90
2019-01-05T09:27:07.438Z,4.90
2019-01-05T09:28:07.908Z,4.90
2019-01-05T09:29:04.802Z,4.90
2019-01-05T09:30:05.420Z,4.90
2019-01-05T09:31:05.536Z,4.90
2019-01-05T09:32:08.264Z,4.90
2019-01-05T09:33:07.964Z,5.00
2019-01-05T09:34:05.003Z,4.90
2019-01-05T09:35:10.221Z,5.00
2019-01-05T09:36:07.680Z,5.00
2019-01-05T09:37:08.114Z,5.00
2019-01-05T09:38:07.677Z,5.00
2019-01-05T09:39:08.194Z,5.00
2019-01-05T09:40:05.126Z,5.00
2019-01-05T09:41:05.172Z,5.00
2019-01-05T09:42:07.787Z,5.00
2019-01-05T09:43:04.738Z,5.00
2019-01-05T09:44:04.922Z,5.00
2019-01-05T09:45:05.009Z,5.00
2019-01-05T09:46:07.766Z,5.00
2019-01-05T09:47:07.302Z,5.10
2019-01-05T09:48:05.345Z,5.00
2019-01-05T09:49:05.521Z,5.10
2019-01-05T09:50:05.766Z,5.10
2019-01-05T09:51:04.862Z,5.10
2019-01-05T09:52:07.552Z,5.10
2019-01-05T09:53:05.596Z,5.10
2019-01-05T09:54:04.735Z,5.10
2019-01-05T09:55:04.794Z,5.10
2019-01-05T09:56:05.040Z,5.10
2019-01-05T09:57:10.397Z,5.10
2019-01-05T09:58:05.362Z,5.20
2019-01-05T09:59:05.601Z,5.20
2019-01-05T10:00:04.735Z,5.20
2019-01-05T10:01:09.805Z,5.20
2019-01-05T10:02:04.795Z,5.20
2019-01-05T10:03:04.881Z,5.20
2019-01-05T10:04:04.873Z,5.20
2019-01-05T10:05:04.849Z,5.20
2019-01-05T10:06:04.856Z,5.20
2019-01-05T10:07:04.837Z,5.20
2019-01-05T10:08:07.546Z,5.20
2019-01-05T10:09:05.523Z,5.20
2019-01-05T10:10:08.138Z,5.30
2019-01-05T10:11:05.057Z,5.30
2019-01-05T10:12:05.210Z,5.30
2019-01-05T10:13:05.404Z,5.40
2019-01-05T10:14:08.159Z,5.30
2019-01-05T10:15:07.623Z,5.40
2019-01-05T10:16:05.571Z,5.30
2019-01-05T10:17:05.840Z,5.40
2019-01-05T10:18:05.365Z,5.40
2019-01-05T10:19:04.759Z,5.40
2019-01-05T10:20:07.517Z,5.40
2019-01-05T10:21:05.460Z,5.40
2019-01-05T10:22:05.527Z,5.40
2019-01-05T10:23:08.175Z,5.50
2019-01-05T10:24:07.795Z,5.50
2019-01-05T10:25:04.774Z,5.50
2019-01-05T10:26:10.045Z,5.50
2019-01-05T10:27:05.020Z,5.50
2019-01-05T10:28:05.099Z,5.50
2019-01-05T10:29:05.290Z,5.50
2019-01-05T10:30:04.751Z,5.60
2019-01-05T10:31:04.842Z,5.50
2019-01-05T10:32:05.019Z,5.60
2019-01-05T10:33:05.155Z,5.60
2019-01-05T10:34:05.265Z,5.60
2019-01-05T10:35:05.365Z,5.60
2019-01-05T10:36:05.413Z,5.60
2019-01-05T10:37:08.029Z,5.60
2019-01-05T10:38:04.939Z,5.60
2019-01-05T10:39:05.003Z,5.60
2019-01-05T10:40:05.098Z,5.60
2019-01-05T10:41:05.211Z,5.60
2019-01-05T10:42:07.913Z,5.60
2019-01-05T10:43:04.960Z,5.70
2019-01-05T10:44:05.211Z,5.60
2019-01-05T10:45:07.913Z,5.60
2019-01-05T10:46:10.029Z,5.70
2019-01-05T10:47:07.515Z,5.70
2019-01-05T10:48:05.602Z,5.70
2019-01-05T10:49:04.815Z,5.70
2019-01-05T10:50:04.919Z,5.70
2019-01-05T10:51:05.193Z,5.70
2019-01-05T10:52:05.556Z,5.70
2019-01-05T10:53:11.245Z,5.70
2019-01-05T10:54:05.401Z,5.70
2019-01-05T10:55:04.983Z,5.80
2019-01-05T10:56:08.034Z,5.80
2019-01-05T10:57:05.335Z,5.80
2019-01-05T10:58:05.455Z,5.80
2019-01-05T10:59:05.735Z,5.80
2019-01-05T11:00:05.694Z,5.80
2019-01-05T11:01:05.167Z,5.90
2019-01-05T11:02:05.718Z,5.80
2019-01-05T11:03:09.383Z,5.90
2019-01-05T11:04:06.425Z,5.80
2019-01-05T11:05:05.685Z,5.80
2019-01-05T11:06:05.210Z,5.90
2019-01-05T11:07:05.304Z,5.90
2019-01-05T11:08:06.325Z,5.90
2019-01-05T11:09:07.415Z,5.90
2019-01-05T11:10:10.920Z,5.90
2019-01-05T11:11:10.274Z,5.90
2019-01-05T11:12:05.240Z,5.90
2019-01-05T11:13:06.309Z,5.90
2019-01-05T11:14:10.992Z,5.90
2019-01-05T11:15:05.454Z,5.90
2019-01-05T11:16:06.299Z,6.00
2019-01-05T11:17:05.744Z,6.00
2019-01-05T11:18:05.057Z,5.90
2019-01-05T11:19:16.737Z,5.90
2019-01-05T11:20:07.754Z,6.00
2019-01-05T11:21:05.217Z,6.00
2019-01-05T11:22:05.100Z,6.00
2019-01-05T11:23:07.991Z,6.00
2019-01-05T11:24:04.878Z,6.00
2019-01-05T11:25:04.995Z,6.00
2019-01-05T11:26:07.652Z,5.90
2019-01-05T11:27:08.058Z,6.00
2019-01-05T11:28:04.894Z,6.00
2019-01-05T11:29:07.468Z,6.00
2019-01-05T11:30:05.397Z,6.00
2019-01-05T11:31:07.941Z,6.00
2019-01-05T11:32:04.761Z,6.00
2019-01-05T11:33:04.761Z,6.00
2019-01-05T11:34:04.794Z,6.00
2019-01-05T11:35:04.827Z,6.00
2019-01-05T11:36:05.537Z,6.00
2019-01-05T11:37:05.328Z,6.00
2019-01-05T11:38:05.444Z,6.00
2019-01-05T11:39:13.119Z,6.00
2019-01-05T11:40:05.015Z,6.00
2019-01-05T11:41:07.713Z,6.00
2019-01-05T11:42:07.410Z,6.00
2019-01-05T11:43:07.968Z,6.00
2019-01-05T11:44:05.530Z,6.00
2019-01-05T11:45:05.740Z,6.00
2019-01-05T11:46:05.233Z,6.00
2019-01-05T11:47:05.414Z,6.00
2019-01-05T11:48:05.715Z,6.00
2019-01-05T11:49:05.217Z,6.10
2019-01-05T11:50:05.412Z,6.10
2019-01-05T11:51:05.207Z,6.00
2019-01-05T11:52:05.605Z,6.10
2019-01-05T11:53:05.749Z,6.10
2019-01-05T11:54:04.794Z,6.10
2019-01-05T11:55:08.447Z,6.10
2019-01-05T11:56:05.151Z,6.00
2019-01-05T11:57:05.498Z,6.10
2019-01-05T11:58:08.081Z,6.10
2019-01-05T11:59:04.970Z,6.00
2019-01-05T12:00:07.645Z,6.10
2019-01-05T12:01:08.192Z,6.10
2019-01-05T12:02:05.594Z,6.10
2019-01-05T12:03:04.805Z,6.10
2019-01-05T12:04:07.473Z,6.10
2019-01-05T12:05:05.601Z,6.10
2019-01-05T12:06:04.847Z,6.10
2019-01-05T12:07:05.043Z,6.10
2019-01-05T12:08:05.148Z,6.10
2019-01-05T12:09:07.869Z,6.10
2019-01-05T12:10:07.660Z,6.20
2019-01-05T12:11:05.724Z,6.20
2019-01-05T12:12:04.784Z,6.10
2019-01-05T12:13:04.826Z,6.20
2019-01-05T12:14:04.834Z,6.20
2019-01-05T12:15:07.380Z,6.20
2019-01-05T12:16:05.268Z,6.20
2019-01-05T12:17:10.381Z,6.20
2019-01-05T12:18:05.257Z,6.20
2019-01-05T12:19:05.266Z,6.20
2019-01-05T12:20:05.236Z,6.20
2019-01-05T12:21:06.199Z,6.20
2019-01-05T12:22:05.643Z,6.20
2019-01-05T12:23:05.913Z,6.20
2019-01-05T12:24:09.037Z,6.20
2019-01-05T12:25:05.432Z,6.20
2019-01-05T12:26:06.427Z,6.20
2019-01-05T12:27:11.016Z,6.20
2019-01-05T12:28:05.414Z,6.20
2019-01-05T12:29:05.738Z,6.20
2019-01-05T12:30:07.677Z,6.20
2019-01-05T12:31:05.626Z,6.20
2019-01-05T12:32:07.285Z,6.20
2019-01-05T12:33:07.799Z,6.20
2019-01-05T12:34:04.727Z,6.30
2019-01-05T12:35:04.782Z,6.30
2019-01-05T12:36:04.783Z,6.30
2019-01-05T12:37:06.166Z,6.30
2019-01-05T12:38:05.222Z,6.30
2019-01-05T12:39:07.801Z,6.30
2019-01-05T12:40:07.245Z,6.30
2019-01-05T12:41:07.638Z,6.30
2019-01-05T12:42:07.980Z,6.30
2019-01-05T12:43:12.564Z,6.30
2019-01-05T12:44:05.607Z,6.30
2019-01-05T12:45:05.659Z,6.30
2019-01-05T12:46:07.222Z,6.40
2019-01-05T12:47:07.853Z,6.40
2019-01-05T12:48:07.365Z,6.40
2019-01-05T12:49:05.282Z,6.40
2019-01-05T12:50:07.390Z,6.40
2019-01-05T12:51:07.922Z,6.40
2019-01-05T12:52:04.899Z,6.40
2019-01-05T12:53:04.882Z,6.40
2019-01-05T12:54:04.850Z,6.40
2019-01-05T12:55:05.138Z,6.40
2019-01-05T12:56:05.259Z,6.40
2019-01-05T12:57:05.285Z,6.40
2019-01-05T12:58:05.270Z,6.40
2019-01-05T12:59:07.757Z,6.40
2019-01-05T13:00:05.630Z,6.40
2019-01-05T13:01:05.668Z,6.40
2019-01-05T13:02:04.662Z,6.50
2019-01-05T13:03:07.240Z,6.40
2019-01-05T13:04:13.985Z,6.40
2019-01-05T13:05:06.155Z,6.40
2019-01-05T13:06:09.469Z,6.40
2019-01-05T13:07:07.768Z,6.50
2019-01-05T13:08:05.193Z,6.40
2019-01-05T13:09:05.312Z,6.50
2019-01-05T13:10:07.896Z,6.40
2019-01-05T13:11:04.936Z,6.50
2019-01-05T13:12:07.548Z,6.40
2019-01-05T13:13:07.871Z,6.40
2019-01-05T13:14:07.366Z,6.50
2019-01-05T13:15:07.970Z,6.50
2019-01-05T13:16:05.116Z,6.50
2019-01-05T13:17:05.436Z,6.40
2019-01-05T13:18:08.062Z,6.50